Time;durP1;ratioP1;P1;durP2;ratioP2;P2;SDS_P1;SDS_P2;PMS_P1;PMS_P2;Temp;Humidity;BMP_temperature;BMP_pressure;BME280_temperature;BME280_humidity;BME280_pressure;Samples;Min_cycle;Max_cycle;Signal;HPM_P1;HPM_P2
2021/06/16 00:00:38;;;;;;;1.95;1.49;;;;;;;19.56;78.54;100218.05;441615;118;931865;-68
2021/06/16 00:01:42;;;;;;;2.54;1.51;;;;;;;19.59;78.32;100216.63;448640;117;924029;-65
2021/06/16 00:02:47;;;;;;;3.03;1.55;;;;;;;19.62;78.21;100218.02;446550;118;925669;-66
2021/06/16 00:03:51;;;;;;;2.58;1.51;;;;;;;19.62;78.14;100218.02;446043;118;924139;-67
2021/06/16 00:04:55;;;;;;;2.46;1.62;;;;;;;19.62;78.03;100209.72;448404;116;926110;-68
2021/06/16 00:05:58;;;;;;;2.36;1.48;;;;;;;19.62;78.05;100212.48;447172;116;925433;-65
2021/06/16 00:07:03;;;;;;;2.45;1.49;;;;;;;19.63;77.99;100212.18;446488;116;926760;-67
2021/06/16 00:08:07;;;;;;;3.14;1.50;;;;;;;19.64;78.01;100210.24;446881;116;930302;-67
2021/06/16 00:09:10;;;;;;;1.59;1.24;;;;;;;19.65;78.02;100209.97;439888;119;922503;-66
2021/06/16 00:10:17;;;;;;;1.69;1.42;;;;;;;19.67;78.01;100212.45;438801;119;922369;-65
2021/06/16 00:11:21;;;;;;;2.30;1.89;;;;;;;19.68;78.02;100203.89;447902;117;922621;-65
2021/06/16 00:12:26;;;;;;;1.94;1.34;;;;;;;19.69;78.01;100201.92;442011;118;922580;-67
2021/06/16 00:13:29;;;;;;;2.78;1.87;;;;;;;19.69;77.97;100207.45;439543;118;922542;-67
2021/06/16 00:14:34;;;;;;;2.87;1.86;;;;;;;19.69;77.90;100202.75;441355;118;922899;-66
2021/06/16 00:15:41;;;;;;;2.05;1.51;;;;;;;19.70;77.89;100201.64;439924;118;922974;-67
2021/06/16 00:16:47;;;;;;;1.75;1.49;;;;;;;19.70;77.93;100198.88;446918;116;922657;-65
2021/06/16 00:17:51;;;;;;;2.86;2.09;;;;;;;19.70;77.99;100200.81;439815;119;922621;-66
2021/06/16 00:18:55;;;;;;;1.59;1.46;;;;;;;19.68;78.05;100198.36;448426;117;923030;-67
2021/06/16 00:19:58;;;;;;;3.15;1.79;;;;;;;19.67;78.10;100196.70;447382;117;922588;-68
2021/06/16 00:21:02;;;;;;;3.22;1.71;;;;;;;19.66;78.17;100196.97;438916;118;930400;-67
2021/06/16 00:22:06;;;;;;;1.76;1.54;;;;;;;19.64;78.28;100196.41;448533;115;923302;-66
2021/06/16 00:23:10;;;;;;;2.15;1.83;;;;;;;19.63;78.24;100189.25;456187;114;922661;-68
2021/06/16 00:24:19;;;;;;;4.99;1.79;;;;;;;19.59;78.19;100188.97;458744;114;922517;-65
2021/06/16 00:25:22;;;;;;;2.17;1.74;;;;;;;19.57;78.25;100186.48;449594;116;930528;-67
2021/06/16 00:26:27;;;;;;;2.11;1.67;;;;;;;19.55;78.22;100187.89;448947;115;923560;-68
2021/06/16 00:27:30;;;;;;;2.21;1.84;;;;;;;19.54;78.27;100186.23;457648;115;925542;-67
2021/06/16 00:28:35;;;;;;;3.66;1.94;;;;;;;19.54;78.41;100178.77;458823;115;931851;-67
2021/06/16 00:29:39;;;;;;;1.94;1.77;;;;;;;19.54;78.54;100184.30;456701;114;926174;-67
2021/06/16 00:30:45;;;;;;;3.10;1.51;;;;;;;19.54;78.56;100178.77;456854;115;924526;-68
2021/06/16 00:31:49;;;;;;;4.08;2.24;;;;;;;19.54;78.63;100187.06;450341;116;922634;-66
2021/06/16 00:32:54;;;;;;;2.34;1.83;;;;;;;19.53;78.65;100185.41;448016;115;924131;-67
2021/06/16 00:33:58;;;;;;;3.14;1.62;;;;;;;19.54;78.76;100181.53;457280;115;924084;-68
2021/06/16 00:35:03;;;;;;;2.97;1.96;;;;;;;19.56;78.87;100187.62;458705;115;924332;-66
2021/06/16 00:36:08;;;;;;;3.03;2.16;;;;;;;19.60;78.87;100182.34;457329;114;924656;-67
2021/06/16 00:37:12;;;;;;;2.03;1.74;;;;;;;19.64;78.81;100190.88;459428;114;925381;-66
2021/06/16 00:38:16;;;;;;;2.84;1.92;;;;;;;19.68;78.71;100191.98;458133;115;931380;-65
2021/06/16 00:39:20;;;;;;;2.65;1.59;;;;;;;19.70;78.61;100186.98;456473;115;926515;-67
2021/06/16 00:40:27;;;;;;;2.19;1.92;;;;;;;19.74;78.50;100193.59;456600;115;922787;-66
2021/06/16 00:41:31;;;;;;;2.59;1.88;;;;;;;19.77;78.37;100190.27;459616;115;923923;-68
2021/06/16 00:42:35;;;;;;;3.97;1.72;;;;;;;19.79;78.34;100190.83;457606;115;924539;-68
2021/06/16 00:43:39;;;;;;;2.16;1.94;;;;;;;19.81;78.27;100192.18;458999;114;924469;-66
2021/06/16 00:44:43;;;;;;;2.45;1.72;;;;;;;19.84;78.16;100193.56;458724;114;924117;-67
2021/06/16 00:45:47;;;;;;;2.07;1.80;;;;;;;19.85;77.91;100184.13;457697;115;924763;-66
2021/06/16 00:46:51;;;;;;;2.67;1.99;;;;;;;19.84;77.78;100194.39;456529;114;922876;-67
2021/06/16 00:47:56;;;;;;;5.14;1.83;;;;;;;19.83;77.73;100186.37;457010;115;924095;-67
2021/06/16 00:49:01;;;;;;;3.31;1.96;;;;;;;19.84;77.67;100199.09;458388;114;924057;-67
2021/06/16 00:50:08;;;;;;;2.80;2.12;;;;;;;19.82;77.51;100191.08;456981;114;925805;-67
2021/06/16 00:51:15;;;;;;;6.44;2.10;;;;;;;19.80;77.50;100192.45;451550;116;924312;-65
2021/06/16 00:52:19;;;;;;;4.08;1.97;;;;;;;19.76;77.50;100189.44;442413;118;924614;-67
2021/06/16 00:53:23;;;;;;;2.66;1.88;;;;;;;19.73;77.53;100186.43;445507;114;926476;-66
2021/06/16 00:54:29;;;;;;;2.68;2.24;;;;;;;19.70;77.52;100195.28;459412;114;924050;-67
2021/06/16 00:55:37;;;;;;;3.12;1.81;;;;;;;19.64;77.49;100197.24;460798;114;923795;-67
2021/06/16 00:56:43;;;;;;;4.01;2.04;;;;;;;19.62;77.52;100201.42;457055;114;922442;-67
2021/06/16 00:57:48;;;;;;;2.34;2.08;;;;;;;19.57;77.56;100193.98;457207;114;922764;-67
2021/06/16 00:58:52;;;;;;;3.28;2.38;;;;;;;19.56;77.56;100201.45;457843;114;922749;-66
2021/06/16 01:00:09;;;;;;;3.24;2.25;;;;;;;19.55;77.57;100202.55;458353;114;922539;-66
2021/06/16 01:01:24;;;;;;;4.79;2.20;;;;;;;19.54;77.66;100200.06;458483;114;930349;-67
2021/06/16 01:02:31;;;;;;;3.48;2.30;;;;;;;19.54;77.69;100198.12;460720;114;925409;-67
2021/06/16 01:03:55;;;;;;;2.42;2.18;;;;;;;19.54;77.58;100189.83;457473;114;922579;-66
2021/06/16 01:05:01;;;;;;;7.03;2.65;;;;;;;19.55;77.49;100182.36;458788;114;924111;-67
2021/06/16 01:06:18;;;;;;;3.92;2.48;;;;;;;19.54;77.39;100178.77;456907;114;922446;-65
2021/06/16 01:07:25;;;;;;;2.57;2.38;;;;;;;19.55;77.21;100183.19;457367;114;923287;-65
2021/06/16 01:08:35;;;;;;;4.66;2.13;;;;;;;19.55;77.07;100187.89;444754;117;925830;-66
2021/06/16 01:10:04;;;;;;;3.16;2.38;;;;;;;19.54;77.04;100186.23;458345;114;922427;-66
2021/06/16 01:11:10;;;;;;;3.60;2.55;;;;;;;19.51;76.90;100190.41;458799;114;927374;-66
2021/06/16 01:12:24;;;;;;;4.91;2.24;;;;;;;19.49;76.93;100197.32;458368;113;922457;-66
2021/06/16 01:13:34;;;;;;;2.91;2.28;;;;;;;19.48;77.04;100198.42;458028;114;922561;-67
2021/06/16 01:14:41;;;;;;;4.21;2.71;;;;;;;19.47;77.09;100196.77;456345;114;922475;-66
2021/06/16 01:15:51;;;;;;;4.34;2.43;;;;;;;19.45;76.95;100202.59;457432;114;922519;-68
2021/06/16 01:17:01;;;;;;;4.35;2.79;;;;;;;19.43;76.98;100201.17;458834;114;922596;-65
2021/06/16 01:18:06;;;;;;;2.87;2.67;;;;;;;19.41;77.09;100195.92;459012;114;923224;-66
2021/06/16 01:19:19;;;;;;;3.61;2.74;;;;;;;19.40;77.09;100196.23;460019;114;922466;-67
2021/06/16 01:20:32;;;;;;;3.57;2.82;;;;;;;19.39;77.07;100192.63;453142;114;922837;-66
2021/06/16 01:21:40;;;;;;;5.33;3.11;;;;;;;19.39;77.18;100191.80;458112;114;922486;-66
2021/06/16 01:22:47;;;;;;;10.58;3.91;;;;;;;19.38;77.24;100196.50;458895;114;922907;-67
2021/06/16 01:24:02;;;;;;;5.64;3.33;;;;;;;19.39;77.25;100203.69;457953;114;922515;-67
2021/06/16 01:25:13;;;;;;;5.56;4.07;;;;;;;19.39;77.31;100203.69;459972;114;922779;-66
2021/06/16 01:26:24;;;;;;;5.72;3.94;;;;;;;19.42;77.31;100210.58;458570;114;925454;-66
2021/06/16 01:27:28;;;;;;;5.03;3.68;;;;;;;19.42;77.36;100196.75;459805;114;923214;-66
2021/06/16 01:28:38;;;;;;;6.70;3.45;;;;;;;19.42;77.34;100210.58;459399;114;924010;-66
2021/06/16 01:29:44;;;;;;;4.86;3.52;;;;;;;19.40;77.31;100213.65;457768;114;925932;-66
2021/06/16 01:30:49;;;;;;;5.23;3.94;;;;;;;19.40;77.20;100219.18;459236;114;923710;-66
2021/06/16 01:31:55;;;;;;;6.23;4.38;;;;;;;19.39;77.24;100214.75;460387;114;923681;-67
2021/06/16 01:33:02;;;;;;;4.59;3.28;;;;;;;19.38;77.30;100215.86;458150;114;923528;-67
2021/06/16 01:34:08;;;;;;;5.03;3.16;;;;;;;19.38;77.35;100209.50;459753;114;923987;-65
2021/06/16 01:35:13;;;;;;;4.65;3.52;;;;;;;19.39;77.32;100216.69;458567;114;923205;-66
2021/06/16 01:36:22;;;;;;;3.85;2.99;;;;;;;19.39;77.25;100216.69;457227;114;924527;-66
2021/06/16 01:37:27;;;;;;;4.93;3.19;;;;;;;19.40;77.16;100221.11;458675;114;924500;-66
2021/06/16 01:38:31;;;;;;;6.62;3.72;;;;;;;19.38;77.09;100221.38;458956;114;924046;-66
2021/06/16 01:39:38;;;;;;;3.59;2.73;;;;;;;19.38;77.03;100226.09;460476;113;924655;-64
2021/06/16 01:40:45;;;;;;;4.52;2.90;;;;;;;19.34;76.97;100220.30;460383;114;924005;-67
2021/06/16 01:41:51;;;;;;;3.91;2.88;;;;;;;19.34;77.04;100222.23;457317;114;924039;-67
2021/06/16 01:42:57;;;;;;;4.68;2.71;;;;;;;19.31;77.11;100225.55;458736;114;923779;-67
2021/06/16 01:44:01;;;;;;;3.91;3.01;;;;;;;19.28;77.17;100228.88;460000;114;923981;-66
2021/06/16 01:45:06;;;;;;;5.23;2.44;;;;;;;19.25;77.22;100223.90;458028;113;924172;-66
2021/06/16 01:46:12;;;;;;;3.54;2.89;;;;;;;19.23;77.29;100231.66;451430;116;924687;-67
2021/06/16 01:47:19;;;;;;;6.93;2.99;;;;;;;19.20;77.38;100233.04;451754;114;925377;-66
2021/06/16 01:48:24;;;;;;;4.79;3.05;;;;;;;19.17;77.42;100228.09;459868;114;924667;-67
2021/06/16 01:49:29;;;;;;;4.14;2.65;;;;;;;19.14;77.52;100231.39;458742;113;925608;-65
2021/06/16 01:50:36;;;;;;;8.16;2.99;;;;;;;19.13;77.70;100222.27;459615;114;924042;-67
2021/06/16 01:51:41;;;;;;;2.95;2.46;;;;;;;19.14;77.78;100226.69;459957;114;924140;-66
2021/06/16 01:52:48;;;;;;;4.83;2.80;;;;;;;19.15;77.77;100225.59;462204;114;924195;-66
2021/06/16 01:53:54;;;;;;;4.71;2.71;;;;;;;19.15;77.77;100225.59;459880;114;924496;-67
2021/06/16 01:55:00;;;;;;;3.13;2.83;;;;;;;19.18;77.78;100220.63;459633;114;924468;-65
2021/06/16 01:56:06;;;;;;;4.93;2.84;;;;;;;19.19;77.82;100231.38;456549;114;924075;-66
2021/06/16 01:57:12;;;;;;;3.34;2.63;;;;;;;19.20;77.78;100224.75;458031;114;924245;-64
2021/06/16 01:58:17;;;;;;;3.73;2.54;;;;;;;19.23;77.73;100231.66;459936;114;924232;-65
2021/06/16 01:59:23;;;;;;;2.92;2.59;;;;;;;19.24;77.74;100234.13;461068;114;924885;-65
2021/06/16 02:00:29;;;;;;;3.98;2.72;;;;;;;19.25;77.66;100237.72;459863;113;922990;-66
2021/06/16 02:01:33;;;;;;;3.04;2.65;;;;;;;19.25;77.61;100235.78;457236;114;924005;-67
2021/06/16 02:02:38;;;;;;;3.35;2.53;;;;;;;19.26;77.60;100236.62;457629;113;931853;-67
2021/06/16 02:03:42;;;;;;;4.24;2.78;;;;;;;19.24;77.54;100236.89;461918;114;924383;-66
2021/06/16 02:04:47;;;;;;;3.79;3.06;;;;;;;19.24;77.50;100236.09;451016;117;925985;-65
2021/06/16 02:05:51;;;;;;;4.61;2.82;;;;;;;19.23;77.47;100235.27;451804;114;931992;-66
2021/06/16 02:07:07;;;;;;;3.25;2.38;;;;;;;19.21;77.56;100240.23;459231;114;924513;-66
2021/06/16 02:08:14;;;;;;;3.17;2.62;;;;;;;19.21;77.66;100225.58;459189;114;924325;-67
2021/06/16 02:09:21;;;;;;;3.02;2.63;;;;;;;19.20;77.84;100232.20;457157;114;924390;-65
2021/06/16 02:10:30;;;;;;;4.88;2.94;;;;;;;19.21;77.88;100226.41;457106;114;925044;-68
2021/06/16 02:11:39;;;;;;;3.08;2.39;;;;;;;19.23;77.83;100231.66;459501;114;924532;-66
2021/06/16 02:12:46;;;;;;;5.13;2.92;;;;;;;19.22;77.83;100232.77;458815;114;922705;-67
2021/06/16 02:13:56;;;;;;;5.47;2.88;;;;;;;19.23;77.79;100238.02;460494;114;923058;-66
2021/06/16 02:15:03;;;;;;;4.87;2.86;;;;;;;19.22;77.77;100235.53;459243;114;923896;-67
2021/06/16 02:16:11;;;;;;;3.69;2.46;;;;;;;19.21;77.79;100234.70;457299;114;922950;-66
2021/06/16 02:17:17;;;;;;;3.53;2.72;;;;;;;19.21;77.89;100242.16;460289;114;923195;-65
2021/06/16 02:18:24;;;;;;;4.06;2.84;;;;;;;19.22;77.94;100241.06;457109;114;922531;-66
2021/06/16 02:19:30;;;;;;;6.74;2.83;;;;;;;19.22;78.03;100239.12;461004;114;922949;-65
2021/06/16 02:20:35;;;;;;;4.19;2.79;;;;;;;19.24;78.12;100241.62;457640;114;922791;-67
2021/06/16 02:21:41;;;;;;;5.46;3.22;;;;;;;19.26;78.16;100240.21;459014;114;922489;-67
2021/06/16 02:22:45;;;;;;;4.78;2.65;;;;;;;19.27;78.10;100247.41;459390;114;930555;-66
2021/06/16 02:23:50;;;;;;;4.18;2.89;;;;;;;19.29;78.00;100236.08;459485;114;922458;-66
2021/06/16 02:24:55;;;;;;;5.18;3.02;;;;;;;19.31;77.96;100242.12;459870;114;923012;-67
2021/06/16 02:25:59;;;;;;;8.17;2.85;;;;;;;19.31;77.86;100247.66;461717;114;922669;-66
2021/06/16 02:27:03;;;;;;;4.32;3.39;;;;;;;19.31;77.86;100244.89;460157;114;922482;-65
2021/06/16 02:28:07;;;;;;;4.36;2.95;;;;;;;19.31;77.85;100251.25;459024;114;922765;-66
2021/06/16 02:29:12;;;;;;;5.16;2.73;;;;;;;19.31;77.89;100248.48;458048;114;922234;-67
2021/06/16 02:30:18;;;;;;;5.02;3.06;;;;;;;19.32;77.89;100252.92;457862;114;922762;-67
2021/06/16 02:31:22;;;;;;;3.75;2.81;;;;;;;19.33;77.93;100256.52;459955;114;922746;-66
2021/06/16 02:32:25;;;;;;;4.67;2.71;;;;;;;19.34;77.91;100256.24;456920;114;930790;-66
2021/06/16 02:33:30;;;;;;;5.55;2.94;;;;;;;19.36;77.91;100267.00;461911;114;932365;-67
2021/06/16 02:34:34;;;;;;;3.07;2.66;;;;;;;19.37;77.88;100265.89;458943;114;924049;-66
2021/06/16 02:35:38;;;;;;;7.83;3.08;;;;;;;19.38;77.89;100264.80;457177;114;925795;-65
2021/06/16 02:36:45;;;;;;;4.09;2.83;;;;;;;19.39;77.89;100267.28;457708;113;926830;-66
2021/06/16 02:38:04;;;;;;;4.47;2.91;;;;;;;19.41;77.91;100272.52;457110;114;924511;-66
2021/06/16 02:39:14;;;;;;;3.28;2.94;;;;;;;19.43;77.87;100276.66;456254;114;924129;-65
2021/06/16 02:40:20;;;;;;;5.75;3.72;;;;;;;19.45;77.80;100277.26;457509;114;924054;-66
2021/06/16 02:41:24;;;;;;;3.62;2.90;;;;;;;19.45;77.80;100276.42;461602;114;924008;-66
2021/06/16 02:42:28;;;;;;;3.69;3.10;;;;;;;19.46;77.75;100280.85;459480;114;924082;-66
2021/06/16 02:43:35;;;;;;;4.70;3.10;;;;;;;19.46;77.76;100278.89;457151;114;924008;-65
2021/06/16 02:44:42;;;;;;;3.35;2.82;;;;;;;19.46;77.75;100281.66;460587;114;932993;-69
2021/06/16 02:45:47;;;;;;;3.85;2.59;;;;;;;19.47;77.79;100274.19;458716;114;922842;-65
2021/06/16 02:46:53;;;;;;;7.09;2.93;;;;;;;19.46;77.83;100287.19;457303;114;924550;-66
2021/06/16 02:47:59;;;;;;;5.38;3.64;;;;;;;19.45;77.91;100279.19;458804;114;924035;-67
2021/06/16 02:49:06;;;;;;;3.82;2.52;;;;;;;19.43;77.88;100282.20;458429;114;922575;-67
2021/06/16 02:50:14;;;;;;;3.93;2.93;;;;;;;19.43;77.95;100284.96;457840;114;924013;-67
2021/06/16 02:51:19;;;;;;;5.85;3.09;;;;;;;19.43;77.99;100284.13;458547;114;924055;-67
2021/06/16 02:52:42;;;;;;;4.44;2.94;;;;;;;19.44;78.02;100286.62;459501;114;924140;-68
2021/06/16 02:53:47;;;;;;;4.76;3.16;;;;;;;19.45;78.04;100284.72;459489;114;923992;-67
2021/06/16 02:54:55;;;;;;;6.43;3.13;;;;;;;19.46;78.09;100280.85;460618;114;924536;-68
2021/06/16 02:56:04;;;;;;;3.52;2.80;;;;;;;19.46;78.06;100284.42;458203;114;925292;-68
2021/06/16 02:57:08;;;;;;;5.87;3.42;;;;;;;19.46;78.10;100283.62;459103;114;924600;-67
2021/06/16 02:58:13;;;;;;;4.09;3.07;;;;;;;19.46;78.12;100289.95;458677;114;924031;-65
2021/06/16 02:59:19;;;;;;;3.54;3.20;;;;;;;19.46;78.20;100289.95;458646;114;927371;-67
2021/06/16 03:00:43;;;;;;;4.57;3.98;;;;;;;19.45;78.28;100291.08;460104;114;924069;-68
2021/06/16 03:01:48;;;;;;;4.16;3.62;;;;;;;19.44;78.30;100294.09;458838;114;926010;-67
2021/06/16 03:02:52;;;;;;;12.54;3.64;;;;;;;19.43;78.39;100292.42;459781;114;924004;-66
2021/06/16 03:03:58;;;;;;;5.49;3.68;;;;;;;19.42;78.40;100299.05;458714;114;926510;-67
2021/06/16 03:05:02;;;;;;;4.35;3.25;;;;;;;19.42;78.40;100290.77;460813;114;924438;-66
2021/06/16 03:06:07;;;;;;;4.71;3.43;;;;;;;19.41;78.41;100297.39;460678;114;924065;-66
2021/06/16 03:07:12;;;;;;;5.09;3.43;;;;;;;19.42;78.40;100301.82;461655;114;924016;-65
2021/06/16 03:08:16;;;;;;;3.52;3.00;;;;;;;19.42;78.49;100299.05;460711;114;922467;-65
2021/06/16 03:09:22;;;;;;;5.16;3.39;;;;;;;19.42;78.53;100304.59;460116;114;932420;-65
2021/06/16 03:10:30;;;;;;;5.01;3.42;;;;;;;19.41;78.55;100303.76;461709;114;930438;-66
2021/06/16 03:11:34;;;;;;;3.58;3.26;;;;;;;19.42;78.62;100299.05;458424;114;923026;-66
2021/06/16 03:12:40;;;;;;;4.71;3.28;;;;;;;19.41;78.66;100300.99;458906;114;925498;-65
2021/06/16 03:13:47;;;;;;;6.39;3.29;;;;;;;19.40;78.70;100299.36;460019;114;924911;-66
2021/06/16 03:14:51;;;;;;;3.62;3.02;;;;;;;19.40;78.76;100296.59;462762;114;925357;-66
2021/06/16 03:15:57;;;;;;;6.89;2.77;;;;;;;19.41;78.83;100300.99;462259;114;922940;-66
2021/06/16 03:17:01;;;;;;;5.46;4.07;;;;;;;19.41;78.90;100295.46;462769;114;924149;-66
2021/06/16 03:18:07;;;;;;;3.78;3.36;;;;;;;19.42;78.94;100291.59;460053;114;922647;-65
2021/06/16 03:19:11;;;;;;;6.79;3.43;;;;;;;19.42;78.98;100297.13;462398;114;930372;-67
2021/06/16 03:20:18;;;;;;;4.44;3.35;;;;;;;19.43;79.02;100300.72;460034;114;922862;-65
2021/06/16 03:21:22;;;;;;;5.93;3.83;;;;;;;19.43;79.02;100298.78;458847;114;922454;-66
2021/06/16 03:22:27;;;;;;;4.16;3.35;;;;;;;19.43;79.02;100297.95;459402;114;922534;-65
2021/06/16 03:23:32;;;;;;;6.98;3.44;;;;;;;19.43;79.01;100298.78;462644;114;930372;-65
2021/06/16 03:24:37;;;;;;;4.26;3.78;;;;;;;19.44;79.04;100300.45;461447;114;922573;-67
2021/06/16 03:25:43;;;;;;;3.86;3.53;;;;;;;19.45;79.12;100299.38;458746;114;930393;-68
2021/06/16 03:26:49;;;;;;;4.47;3.69;;;;;;;19.46;79.08;100297.44;458904;114;926124;-66
2021/06/16 03:27:54;;;;;;;6.94;3.69;;;;;;;19.47;79.07;100288.84;456152;114;922461;-67
2021/06/16 03:28:59;;;;;;;6.36;3.27;;;;;;;19.49;79.05;100292.17;458927;114;922608;-66
2021/06/16 03:30:03;;;;;;;4.96;3.42;;;;;;;19.51;79.08;100300.19;458758;113;922530;-65
2021/06/16 03:31:10;;;;;;;4.58;3.47;;;;;;;19.52;79.11;100296.30;461076;114;922797;-66
2021/06/16 03:32:14;;;;;;;3.79;3.49;;;;;;;19.54;79.05;100305.15;460457;114;922531;-66
2021/06/16 03:33:19;;;;;;;6.27;3.42;;;;;;;19.56;79.00;100305.70;461539;114;922848;-66
2021/06/16 03:34:23;;;;;;;4.43;3.44;;;;;;;19.58;79.02;100304.30;460021;114;924390;-66
2021/06/16 03:35:27;;;;;;;5.35;3.39;;;;;;;19.60;79.03;100309.56;461892;114;924784;-65
2021/06/16 03:36:34;;;;;;;5.76;3.62;;;;;;;19.64;78.99;100315.34;459033;114;925158;-65
2021/06/16 03:37:39;;;;;;;4.50;3.29;;;;;;;19.66;78.93;100313.97;460804;114;930331;-67
2021/06/16 03:38:44;;;;;;;5.04;3.66;;;;;;;19.68;78.89;100314.53;460454;114;924488;-65
2021/06/16 03:39:51;;;;;;;4.12;3.78;;;;;;;19.72;78.86;100317.55;459151;114;922549;-65
2021/06/16 03:40:56;;;;;;;5.16;3.12;;;;;;;19.76;78.75;100318.64;458045;114;930474;-65
2021/06/16 03:42:01;;;;;;;4.42;3.48;;;;;;;19.77;78.70;100321.13;459925;114;924043;-66
2021/06/16 03:43:05;;;;;;;4.46;3.68;;;;;;;19.80;78.61;100317.78;458530;113;924589;-66
2021/06/16 03:44:10;;;;;;;4.41;3.05;;;;;;;19.83;78.51;100316.41;458630;113;922565;-65
2021/06/16 03:45:15;;;;;;;4.14;3.45;;;;;;;19.86;78.54;100329.66;459047;114;924112;-66
2021/06/16 03:46:22;;;;;;;5.02;3.56;;;;;;;19.89;78.52;100320.81;460304;113;924037;-66
2021/06/16 03:47:29;;;;;;;4.90;3.99;;;;;;;19.92;78.55;100325.77;460737;114;924061;-66
2021/06/16 03:48:34;;;;;;;6.04;3.24;;;;;;;19.93;78.52;100319.96;462250;114;923110;-66
2021/06/16 03:49:41;;;;;;;4.84;3.66;;;;;;;19.95;78.51;100331.59;461434;114;926761;-64
2021/06/16 03:50:48;;;;;;;4.03;3.44;;;;;;;19.99;78.52;100329.07;460233;114;924187;-67
2021/06/16 03:51:52;;;;;;;4.88;3.44;;;;;;;20.02;78.58;100322.95;457677;114;924148;-67
2021/06/16 03:52:57;;;;;;;5.71;3.40;;;;;;;20.04;78.58;100325.45;457630;114;924769;-66
2021/06/16 03:54:11;;;;;;;5.18;3.26;;;;;;;20.08;78.58;100335.66;458970;114;927219;-65
2021/06/16 03:55:10;;;;;;;6.18;3.94;;;;;;;20.10;78.50;100330.69;458311;114;926663;-65
2021/06/16 03:56:16;;;;;;;4.92;3.24;;;;;;;20.13;78.38;100335.64;459603;114;924533;-66
2021/06/16 03:57:22;;;;;;;3.86;3.32;;;;;;;20.14;78.38;100329.00;461100;114;924017;-64
2021/06/16 03:58:26;;;;;;;5.67;3.93;;;;;;;20.18;78.33;100332.05;458710;114;924041;-65
2021/06/16 03:59:30;;;;;;;6.70;3.64;;;;;;;20.21;78.27;100342.53;456618;114;923985;-65
2021/06/16 04:00:36;;;;;;;4.09;3.54;;;;;;;20.24;78.26;100341.95;458475;114;932016;-66
2021/06/16 04:01:41;;;;;;;4.08;3.43;;;;;;;20.27;78.22;100336.70;457039;114;924774;-69
2021/06/16 04:02:48;;;;;;;4.58;3.06;;;;;;;20.29;78.19;100334.45;459995;114;924023;-67
2021/06/16 04:03:52;;;;;;;5.74;3.23;;;;;;;20.33;78.09;100343.06;458734;114;923991;-66
2021/06/16 04:05:01;;;;;;;6.69;3.79;;;;;;;20.35;78.16;100338.88;459656;114;925886;-67
2021/06/16 04:06:07;;;;;;;5.83;3.46;;;;;;;20.38;78.04;100334.73;457542;114;923106;-67
2021/06/16 04:07:18;;;;;;;5.58;3.19;;;;;;;20.41;78.08;100347.98;457664;114;923905;-66
2021/06/16 04:08:23;;;;;;;8.46;3.42;;;;;;;20.45;78.11;100338.02;457153;114;922570;-69
2021/06/16 04:09:27;;;;;;;3.64;3.22;;;;;;;20.49;78.09;100349.34;450309;116;922939;-66
2021/06/16 04:10:33;;;;;;;5.64;2.97;;;;;;;20.52;78.13;100341.28;452615;114;933134;-66
2021/06/16 04:11:38;;;;;;;3.82;2.99;;;;;;;20.55;77.92;100348.20;461497;114;922483;-65
2021/06/16 04:12:46;;;;;;;4.57;2.93;;;;;;;20.57;77.42;100344.02;458450;114;924683;-68
2021/06/16 04:13:50;;;;;;;5.07;2.69;;;;;;;20.60;77.20;100337.92;456634;114;922521;-66
2021/06/16 04:14:55;;;;;;;5.14;3.08;;;;;;;20.65;77.14;100345.37;459667;113;923872;-64
2021/06/16 04:16:02;;;;;;;7.36;2.81;;;;;;;20.69;77.04;100349.20;458140;114;924641;-66
2021/06/16 04:17:07;;;;;;;6.13;2.67;;;;;;;20.74;76.82;100343.62;457954;114;924273;-67
2021/06/16 04:18:11;;;;;;;6.11;2.60;;;;;;;20.78;76.55;100350.28;457757;114;922453;-67
2021/06/16 04:19:15;;;;;;;4.25;2.44;;;;;;;20.82;76.12;100345.80;457353;114;922867;-65
2021/06/16 04:20:20;;;;;;;8.87;2.64;;;;;;;20.85;75.88;100347.98;457271;114;922479;-65
2021/06/16 04:21:24;;;;;;;4.78;2.17;;;;;;;20.90;75.75;100352.66;457430;114;922735;-66
2021/06/16 04:22:28;;;;;;;3.71;2.29;;;;;;;20.93;75.57;100352.92;459446;114;923197;-67
2021/06/16 04:23:32;;;;;;;6.91;2.80;;;;;;;20.98;75.43;100352.05;457174;114;922501;-65
2021/06/16 04:24:36;;;;;;;6.61;2.70;;;;;;;21.02;75.30;100345.64;460804;114;922927;-66
2021/06/16 04:25:39;;;;;;;3.59;2.24;;;;;;;21.07;75.10;100350.31;447927;116;922682;-66
2021/06/16 04:26:44;;;;;;;6.64;3.16;;;;;;;21.10;75.02;100346.97;449931;114;922840;-67
2021/06/16 04:27:48;;;;;;;7.76;2.85;;;;;;;21.12;74.76;100341.95;459422;114;922954;-65
2021/06/16 04:28:53;;;;;;;5.63;3.29;;;;;;;21.14;74.56;100350.81;456496;114;924509;-66
2021/06/16 04:29:58;;;;;;;5.63;4.48;;;;;;;21.16;74.65;100351.39;448749;116;936235;-64
2021/06/16 04:31:02;;;;;;;4.46;3.13;;;;;;;21.18;74.62;100349.97;449190;114;922572;-67
2021/06/16 04:32:06;;;;;;;5.64;2.91;;;;;;;21.20;74.58;100350.52;459213;114;930485;-65
2021/06/16 04:33:09;;;;;;;5.42;2.54;;;;;;;21.25;74.55;100354.35;459296;114;922516;-65
2021/06/16 04:34:13;;;;;;;4.86;2.58;;;;;;;21.29;74.33;100352.64;461926;114;924041;-65
2021/06/16 04:35:19;;;;;;;4.61;2.43;;;;;;;21.32;74.42;100349.30;457994;114;925381;-67
2021/06/16 04:36:23;;;;;;;4.98;3.01;;;;;;;21.36;74.57;100353.97;457569;114;924453;-67
2021/06/16 04:37:28;;;;;;;5.96;2.99;;;;;;;21.42;74.62;100357.53;457161;114;922412;-69
2021/06/16 04:38:32;;;;;;;5.24;2.72;;;;;;;21.47;74.47;100360.25;462273;114;923997;-67
2021/06/16 04:39:39;;;;;;;5.24;2.72;;;;;;;21.52;74.40;100354.65;459579;114;924078;-70
2021/06/16 04:40:47;;;;;;;5.78;2.97;;;;;;;21.56;74.30;100348.22;456822;114;924782;-66
2021/06/16 04:41:51;;;;;;;5.23;2.45;;;;;;;21.60;74.27;100343.76;461167;114;926351;-66
2021/06/16 04:42:55;;;;;;;6.20;2.85;;;;;;;21.64;74.18;100343.98;458945;114;925301;-65
2021/06/16 04:43:59;;;;;;;6.84;2.66;;;;;;;21.69;74.12;100343.93;458133;114;924156;-66
2021/06/16 04:45:06;;;;;;;4.83;2.46;;;;;;;21.73;73.90;100342.21;458533;113;922964;-67
2021/06/16 04:46:10;;;;;;;4.36;2.29;;;;;;;21.80;73.80;100348.25;461016;114;924009;-67
2021/06/16 04:47:16;;;;;;;3.57;2.32;;;;;;;21.85;73.66;100344.58;456821;114;924020;-65
2021/06/16 04:48:20;;;;;;;5.79;3.05;;;;;;;21.91;73.45;100343.41;457948;114;924500;-68
2021/06/16 04:49:26;;;;;;;5.41;3.15;;;;;;;21.97;73.16;100348.64;458400;114;925066;-66
2021/06/16 04:50:31;;;;;;;4.81;2.88;;;;;;;22.03;72.92;100343.85;442699;118;924287;-64
2021/06/16 04:51:35;;;;;;;4.84;2.71;;;;;;;22.09;72.98;100348.22;441519;114;924119;-66
2021/06/16 04:52:39;;;;;;;7.05;2.72;;;;;;;22.15;72.90;100349.81;457404;114;924060;-68
2021/06/16 04:53:43;;;;;;;4.59;2.07;;;;;;;22.20;72.69;100348.92;462087;114;924494;-68
2021/06/16 04:54:46;;;;;;;4.91;2.54;;;;;;;22.25;71.81;100348.84;459954;114;924089;-65
2021/06/16 04:55:51;;;;;;;6.02;1.96;;;;;;;22.29;71.53;100349.90;456815;114;932104;-66
2021/06/16 04:57:03;;;;;;;3.86;2.24;;;;;;;22.33;71.25;100354.55;450822;116;924520;-67
2021/06/16 04:58:04;;;;;;;5.40;2.21;;;;;;;22.38;71.06;100350.91;452227;114;924183;-65
2021/06/16 04:59:09;;;;;;;4.81;1.81;;;;;;;22.41;70.65;100353.91;462229;114;924556;-66
2021/06/16 05:00:16;;;;;;;6.77;3.96;;;;;;;22.44;70.36;100347.73;460152;114;924053;-66
2021/06/16 05:01:21;;;;;;;4.14;2.69;;;;;;;22.49;69.98;100355.20;457067;114;925774;-67
2021/06/16 05:02:25;;;;;;;5.64;2.51;;;;;;;22.52;69.60;100357.36;458482;114;923980;-72
2021/06/16 05:03:28;;;;;;;4.29;2.09;;;;;;;22.56;69.64;100355.63;456967;114;930857;-67